Oslo, MN

12:14 PM CDT on Augustus 28, 2015 (GMT -0500)
Grafton Municipal | | Change Station
CLOSE
Current Station
Airport
Location: Grafton,
Elevation: 823 ft
Nearby Weather Stations

Elev 823 ft 48.40 °N, 97.37 °W | Updated -29 second ago

Toe getrek
Toe getrek
72 °F
Feels Like 72 °F
N
20
Wind Veranderlik Wind from Suid
Gusts 25 mph

Vandag
High -- | Low -- °F
--% Chance of Precip.
Yesterday
High -- | Low -- °F
Precip. -- in
6:40 AM 8:17 PM
Waxing Gibbous, 98% visible
Druk 29.81 in
Sigbaarheid 10.0 myle
Wolke Oop
Dou-punt 68 °F
Humiditeit 88%
Rainfall 0.00 in
Snow Depth Not available.
UV 7 out of 12
Pollen 9.90 out of 12
Air Quality Not available.
Flu Activity Not available.
METAR KGAF 281715Z AUTO 19017G22KT 10SM CLR 22/20 A2981 RMK AO2
Druk 29.81 in
Sigbaarheid 10.0 myle
Wolke Oop
Dou-punt 68 °F
Humiditeit 88%
Rainfall 0.00 in
Snow Depth Not available.
UV 7 out of 12
Pollen 9.90 out of 12
Air Quality Not available.
Flu Activity Not available.
METAR KGAF 281715Z AUTO 19017G22KT 10SM CLR 22/20 A2981 RMK AO2

10-Day Weather Forecast

×

Almanac

Astronomy

Aug. 28, 2015 Rise Set
Ware Tyd
Civil Twilight
Nautical Twilight
Astronomical Twilight
Maan
Length Of Visible Light
Length of Day
Tomorrow will be .
, % of the Moon is Illuminated

Today's Extremes

State Highs State Lows

Community

WunderPhotos

Upload Photos

1,850,438 photos uploaded!

WunderBlogs® & News

Nearby

Air Quality

  Air Quality AQ Index Pollutant
Not available.

Snow Depth

Station Depth Elevation

Earthquake Activity

Stad Distance Mag. Time & Date
Minimum magnitude displayed is 2.5.

Coastal Water Temperatures

Plek Temperatuur

Stations

Nearby Weather Stations

Station Location Temp Wind afkoel Dou-punt Humiditeit Wind Precip. Elev Opdateer Type